<?xml version="1.0" encoding="UTF-8" ?>
<gpx version="1.1" xmlns:xsi="http://www.w3.org/2001/XMLSchema-instance" 
    xmlns="http://www.topografix.com/GPX/1/1" 
    xsi:schemaLocation="http://www.topografix.com/GPX/1/1 http://www.topografix.com/GPX/1/1/gpx.xsd" 
    creator="Openrunner - https://www.openrunner.com" >	<trk>
						<name>trail IMP 2025 GB V2-20652771</name>
						<trkseg>
					<trkpt lat="45.701690" lon="3.056480">
						<ele>711</ele>
						<time>2025-03-13T13:31:04Z</time>
					</trkpt>
					<trkpt lat="45.701610" lon="3.056410">
						<ele>711</ele>
						<time>2025-03-13T13:31:09Z</time>
					</trkpt>
					<trkpt lat="45.701530" lon="3.056320">
						<ele>710</ele>
						<time>2025-03-13T13:31:14Z</time>
					</trkpt>
					<trkpt lat="45.701470" lon="3.056260">
						<ele>710</ele>
						<time>2025-03-13T13:31:17Z</time>
					</trkpt>
					<trkpt lat="45.701210" lon="3.055950">
						<ele>709</ele>
						<time>2025-03-13T13:31:34Z</time>
					</trkpt>
					<trkpt lat="45.700980" lon="3.055730">
						<ele>706</ele>
						<time>2025-03-13T13:31:48Z</time>
					</trkpt>
					<trkpt lat="45.700680" lon="3.055440">
						<ele>704</ele>
						<time>2025-03-13T13:32:06Z</time>
					</trkpt>
					<trkpt lat="45.700440" lon="3.055250">
						<ele>702</ele>
						<time>2025-03-13T13:32:20Z</time>
					</trkpt>
					<trkpt lat="45.700200" lon="3.055100">
						<ele>700</ele>
						<time>2025-03-13T13:32:33Z</time>
					</trkpt>
					<trkpt lat="45.699890" lon="3.054940">
						<ele>697</ele>
						<time>2025-03-13T13:32:50Z</time>
					</trkpt>
					<trkpt lat="45.699500" lon="3.054760">
						<ele>690</ele>
						<time>2025-03-13T13:33:10Z</time>
					</trkpt>
					<trkpt lat="45.699150" lon="3.054300">
						<ele>685</ele>
						<time>2025-03-13T13:33:34Z</time>
					</trkpt>
					<trkpt lat="45.699110" lon="3.054050">
						<ele>684</ele>
						<time>2025-03-13T13:33:43Z</time>
					</trkpt>
					<trkpt lat="45.699170" lon="3.053790">
						<ele>682</ele>
						<time>2025-03-13T13:33:52Z</time>
					</trkpt>
					<trkpt lat="45.699290" lon="3.053510">
						<ele>681</ele>
						<time>2025-03-13T13:34:04Z</time>
					</trkpt>
					<trkpt lat="45.699500" lon="3.053230">
						<ele>681</ele>
						<time>2025-03-13T13:34:18Z</time>
					</trkpt>
					<trkpt lat="45.699690" lon="3.052910">
						<ele>681</ele>
						<time>2025-03-13T13:34:33Z</time>
					</trkpt>
					<trkpt lat="45.699810" lon="3.052680">
						<ele>680</ele>
						<time>2025-03-13T13:34:43Z</time>
					</trkpt>
					<trkpt lat="45.699870" lon="3.052460">
						<ele>679</ele>
						<time>2025-03-13T13:34:51Z</time>
					</trkpt>
					<trkpt lat="45.699870" lon="3.052360">
						<ele>679</ele>
						<time>2025-03-13T13:34:55Z</time>
					</trkpt>
					<trkpt lat="45.699870" lon="3.052110">
						<ele>680</ele>
						<time>2025-03-13T13:35:04Z</time>
					</trkpt>
					<trkpt lat="45.699830" lon="3.051980">
						<ele>679</ele>
						<time>2025-03-13T13:35:08Z</time>
					</trkpt>
					<trkpt lat="45.699790" lon="3.051860">
						<ele>679</ele>
						<time>2025-03-13T13:35:13Z</time>
					</trkpt>
					<trkpt lat="45.699400" lon="3.051620">
						<ele>676</ele>
						<time>2025-03-13T13:35:34Z</time>
					</trkpt>
					<trkpt lat="45.698820" lon="3.051390">
						<ele>673</ele>
						<time>2025-03-13T13:36:04Z</time>
					</trkpt>
					<trkpt lat="45.698710" lon="3.051530">
						<ele>670</ele>
						<time>2025-03-13T13:36:12Z</time>
					</trkpt>
					<trkpt lat="45.698610" lon="3.052280">
						<ele>666</ele>
						<time>2025-03-13T13:36:39Z</time>
					</trkpt>
					<trkpt lat="45.698460" lon="3.052760">
						<ele>663</ele>
						<time>2025-03-13T13:36:57Z</time>
					</trkpt>
					<trkpt lat="45.698300" lon="3.053260">
						<ele>661</ele>
						<time>2025-03-13T13:37:16Z</time>
					</trkpt>
					<trkpt lat="45.698120" lon="3.053890">
						<ele>662</ele>
						<time>2025-03-13T13:37:40Z</time>
					</trkpt>
					<trkpt lat="45.698010" lon="3.054040">
						<ele>662</ele>
						<time>2025-03-13T13:37:48Z</time>
					</trkpt>
					<trkpt lat="45.697710" lon="3.054190">
						<ele>659</ele>
						<time>2025-03-13T13:38:03Z</time>
					</trkpt>
					<trkpt lat="45.695560" lon="3.055450">
						<ele>650</ele>
						<time>2025-03-13T13:40:00Z</time>
					</trkpt>
					<trkpt lat="45.695290" lon="3.055570">
						<ele>649</ele>
						<time>2025-03-13T13:40:14Z</time>
					</trkpt>
					<trkpt lat="45.695040" lon="3.055590">
						<ele>647</ele>
						<time>2025-03-13T13:40:26Z</time>
					</trkpt>
					<trkpt lat="45.694780" lon="3.055570">
						<ele>644</ele>
						<time>2025-03-13T13:40:39Z</time>
					</trkpt>
					<trkpt lat="45.694570" lon="3.055550">
						<ele>641</ele>
						<time>2025-03-13T13:40:50Z</time>
					</trkpt>
					<trkpt lat="45.694460" lon="3.055530">
						<ele>639</ele>
						<time>2025-03-13T13:40:55Z</time>
					</trkpt>
					<trkpt lat="45.694250" lon="3.055570">
						<ele>637</ele>
						<time>2025-03-13T13:41:06Z</time>
					</trkpt>
					<trkpt lat="45.693900" lon="3.055920">
						<ele>634</ele>
						<time>2025-03-13T13:41:27Z</time>
					</trkpt>
					<trkpt lat="45.693820" lon="3.055900">
						<ele>634</ele>
						<time>2025-03-13T13:41:32Z</time>
					</trkpt>
					<trkpt lat="45.693720" lon="3.055890">
						<ele>634</ele>
						<time>2025-03-13T13:41:37Z</time>
					</trkpt>
					<trkpt lat="45.693650" lon="3.055920">
						<ele>634</ele>
						<time>2025-03-13T13:41:40Z</time>
					</trkpt>
					<trkpt lat="45.693580" lon="3.055960">
						<ele>634</ele>
						<time>2025-03-13T13:41:44Z</time>
					</trkpt>
					<trkpt lat="45.693500" lon="3.056000">
						<ele>634</ele>
						<time>2025-03-13T13:41:48Z</time>
					</trkpt>
					<trkpt lat="45.693470" lon="3.056010">
						<ele>634</ele>
						<time>2025-03-13T13:41:50Z</time>
					</trkpt>
					<trkpt lat="45.693550" lon="3.056250">
						<ele>635</ele>
						<time>2025-03-13T13:41:59Z</time>
					</trkpt>
					<trkpt lat="45.693580" lon="3.056560">
						<ele>637</ele>
						<time>2025-03-13T13:42:10Z</time>
					</trkpt>
					<trkpt lat="45.693600" lon="3.057650">
						<ele>639</ele>
						<time>2025-03-13T13:42:48Z</time>
					</trkpt>
					<trkpt lat="45.693590" lon="3.058250">
						<ele>639</ele>
						<time>2025-03-13T13:43:09Z</time>
					</trkpt>
					<trkpt lat="45.693670" lon="3.058960">
						<ele>638</ele>
						<time>2025-03-13T13:43:34Z</time>
					</trkpt>
					<trkpt lat="45.693980" lon="3.059960">
						<ele>630</ele>
						<time>2025-03-13T13:44:12Z</time>
					</trkpt>
					<trkpt lat="45.694250" lon="3.061350">
						<ele>623</ele>
						<time>2025-03-13T13:45:03Z</time>
					</trkpt>
					<trkpt lat="45.694140" lon="3.061900">
						<ele>625</ele>
						<time>2025-03-13T13:45:23Z</time>
					</trkpt>
					<trkpt lat="45.694050" lon="3.063470">
						<ele>624</ele>
						<time>2025-03-13T13:46:18Z</time>
					</trkpt>
					<trkpt lat="45.694030" lon="3.063970">
						<ele>621</ele>
						<time>2025-03-13T13:46:35Z</time>
					</trkpt>
					<trkpt lat="45.694030" lon="3.064040">
						<ele>620</ele>
						<time>2025-03-13T13:46:38Z</time>
					</trkpt>
					<trkpt lat="45.693980" lon="3.064070">
						<ele>622</ele>
						<time>2025-03-13T13:46:41Z</time>
					</trkpt>
					<trkpt lat="45.693710" lon="3.064660">
						<ele>624</ele>
						<time>2025-03-13T13:47:05Z</time>
					</trkpt>
					<trkpt lat="45.693340" lon="3.065000">
						<ele>630</ele>
						<time>2025-03-13T13:47:27Z</time>
					</trkpt>
					<trkpt lat="45.692720" lon="3.065130">
						<ele>645</ele>
						<time>2025-03-13T13:47:59Z</time>
					</trkpt>
					<trkpt lat="45.692210" lon="3.065050">
						<ele>660</ele>
						<time>2025-03-13T13:48:24Z</time>
					</trkpt>
					<trkpt lat="45.691820" lon="3.064930">
						<ele>671</ele>
						<time>2025-03-13T13:48:44Z</time>
					</trkpt>
					<trkpt lat="45.691230" lon="3.064980">
						<ele>678</ele>
						<time>2025-03-13T13:49:14Z</time>
					</trkpt>
					<trkpt lat="45.690980" lon="3.065220">
						<ele>677</ele>
						<time>2025-03-13T13:49:29Z</time>
					</trkpt>
					<trkpt lat="45.690640" lon="3.065740">
						<ele>675</ele>
						<time>2025-03-13T13:49:54Z</time>
					</trkpt>
					<trkpt lat="45.690470" lon="3.065830">
						<ele>676</ele>
						<time>2025-03-13T13:50:03Z</time>
					</trkpt>
					<trkpt lat="45.690110" lon="3.065870">
						<ele>681</ele>
						<time>2025-03-13T13:50:21Z</time>
					</trkpt>
					<trkpt lat="45.689930" lon="3.066220">
						<ele>682</ele>
						<time>2025-03-13T13:50:36Z</time>
					</trkpt>
					<trkpt lat="45.689840" lon="3.066290">
						<ele>683</ele>
						<time>2025-03-13T13:50:41Z</time>
					</trkpt>
					<trkpt lat="45.689430" lon="3.066740">
						<ele>688</ele>
						<time>2025-03-13T13:51:07Z</time>
					</trkpt>
					<trkpt lat="45.688710" lon="3.067940">
						<ele>696</ele>
						<time>2025-03-13T13:52:02Z</time>
					</trkpt>
					<trkpt lat="45.688370" lon="3.068720">
						<ele>698</ele>
						<time>2025-03-13T13:52:35Z</time>
					</trkpt>
					<trkpt lat="45.688070" lon="3.069500">
						<ele>702</ele>
						<time>2025-03-13T13:53:06Z</time>
					</trkpt>
					<trkpt lat="45.687750" lon="3.070080">
						<ele>708</ele>
						<time>2025-03-13T13:53:31Z</time>
					</trkpt>
					<trkpt lat="45.687460" lon="3.070540">
						<ele>713</ele>
						<time>2025-03-13T13:53:53Z</time>
					</trkpt>
					<trkpt lat="45.687240" lon="3.070970">
						<ele>712</ele>
						<time>2025-03-13T13:54:12Z</time>
					</trkpt>
					<trkpt lat="45.687100" lon="3.071240">
						<ele>712</ele>
						<time>2025-03-13T13:54:24Z</time>
					</trkpt>
					<trkpt lat="45.686940" lon="3.071440">
						<ele>712</ele>
						<time>2025-03-13T13:54:34Z</time>
					</trkpt>
					<trkpt lat="45.686510" lon="3.072220">
						<ele>711</ele>
						<time>2025-03-13T13:55:09Z</time>
					</trkpt>
					<trkpt lat="45.686430" lon="3.072480">
						<ele>709</ele>
						<time>2025-03-13T13:55:19Z</time>
					</trkpt>
					<trkpt lat="45.686220" lon="3.072890">
						<ele>706</ele>
						<time>2025-03-13T13:55:37Z</time>
					</trkpt>
					<trkpt lat="45.686080" lon="3.073070">
						<ele>707</ele>
						<time>2025-03-13T13:55:46Z</time>
					</trkpt>
					<trkpt lat="45.685970" lon="3.073240">
						<ele>707</ele>
						<time>2025-03-13T13:55:54Z</time>
					</trkpt>
					<trkpt lat="45.685860" lon="3.073870">
						<ele>705</ele>
						<time>2025-03-13T13:56:17Z</time>
					</trkpt>
					<trkpt lat="45.685810" lon="3.074270">
						<ele>704</ele>
						<time>2025-03-13T13:56:31Z</time>
					</trkpt>
					<trkpt lat="45.685820" lon="3.074770">
						<ele>701</ele>
						<time>2025-03-13T13:56:49Z</time>
					</trkpt>
					<trkpt lat="45.685840" lon="3.075170">
						<ele>698</ele>
						<time>2025-03-13T13:57:03Z</time>
					</trkpt>
					<trkpt lat="45.685770" lon="3.075420">
						<ele>699</ele>
						<time>2025-03-13T13:57:12Z</time>
					</trkpt>
					<trkpt lat="45.685600" lon="3.075620">
						<ele>701</ele>
						<time>2025-03-13T13:57:23Z</time>
					</trkpt>
					<trkpt lat="45.685260" lon="3.076280">
						<ele>708</ele>
						<time>2025-03-13T13:57:52Z</time>
					</trkpt>
					<trkpt lat="45.685070" lon="3.076380">
						<ele>712</ele>
						<time>2025-03-13T13:58:02Z</time>
					</trkpt>
					<trkpt lat="45.683980" lon="3.076090">
						<ele>721</ele>
						<time>2025-03-13T13:58:57Z</time>
					</trkpt>
					<trkpt lat="45.683860" lon="3.076040">
						<ele>721</ele>
						<time>2025-03-13T13:59:04Z</time>
					</trkpt>
					<trkpt lat="45.684060" lon="3.074650">
						<ele>723</ele>
						<time>2025-03-13T13:59:53Z</time>
					</trkpt>
					<trkpt lat="45.684120" lon="3.073840">
						<ele>725</ele>
						<time>2025-03-13T14:00:22Z</time>
					</trkpt>
					<trkpt lat="45.684140" lon="3.073410">
						<ele>727</ele>
						<time>2025-03-13T14:00:37Z</time>
					</trkpt>
					<trkpt lat="45.684100" lon="3.073110">
						<ele>727</ele>
						<time>2025-03-13T14:00:47Z</time>
					</trkpt>
					<trkpt lat="45.684050" lon="3.072730">
						<ele>728</ele>
						<time>2025-03-13T14:01:01Z</time>
					</trkpt>
					<trkpt lat="45.683940" lon="3.072380">
						<ele>728</ele>
						<time>2025-03-13T14:01:14Z</time>
					</trkpt>
					<trkpt lat="45.683870" lon="3.072130">
						<ele>728</ele>
						<time>2025-03-13T14:01:24Z</time>
					</trkpt>
					<trkpt lat="45.683880" lon="3.071790">
						<ele>729</ele>
						<time>2025-03-13T14:01:36Z</time>
					</trkpt>
					<trkpt lat="45.683880" lon="3.071290">
						<ele>731</ele>
						<time>2025-03-13T14:01:53Z</time>
					</trkpt>
					<trkpt lat="45.683880" lon="3.070960">
						<ele>732</ele>
						<time>2025-03-13T14:02:05Z</time>
					</trkpt>
					<trkpt lat="45.683900" lon="3.070660">
						<ele>733</ele>
						<time>2025-03-13T14:02:15Z</time>
					</trkpt>
					<trkpt lat="45.683900" lon="3.070510">
						<ele>733</ele>
						<time>2025-03-13T14:02:20Z</time>
					</trkpt>
					<trkpt lat="45.683890" lon="3.070010">
						<ele>734</ele>
						<time>2025-03-13T14:02:38Z</time>
					</trkpt>
					<trkpt lat="45.683800" lon="3.069990">
						<ele>733</ele>
						<time>2025-03-13T14:02:42Z</time>
					</trkpt>
					<trkpt lat="45.683640" lon="3.070020">
						<ele>732</ele>
						<time>2025-03-13T14:02:51Z</time>
					</trkpt>
					<trkpt lat="45.683510" lon="3.070000">
						<ele>732</ele>
						<time>2025-03-13T14:02:57Z</time>
					</trkpt>
					<trkpt lat="45.683380" lon="3.069940">
						<ele>731</ele>
						<time>2025-03-13T14:03:04Z</time>
					</trkpt>
					<trkpt lat="45.683150" lon="3.069700">
						<ele>729</ele>
						<time>2025-03-13T14:03:18Z</time>
					</trkpt>
					<trkpt lat="45.682650" lon="3.069360">
						<ele>721</ele>
						<time>2025-03-13T14:03:46Z</time>
					</trkpt>
					<trkpt lat="45.682080" lon="3.069050">
						<ele>712</ele>
						<time>2025-03-13T14:04:16Z</time>
					</trkpt>
					<trkpt lat="45.681650" lon="3.068760">
						<ele>706</ele>
						<time>2025-03-13T14:04:40Z</time>
					</trkpt>
					<trkpt lat="45.680880" lon="3.068700">
						<ele>694</ele>
						<time>2025-03-13T14:05:19Z</time>
					</trkpt>
					<trkpt lat="45.680580" lon="3.068660">
						<ele>690</ele>
						<time>2025-03-13T14:05:34Z</time>
					</trkpt>
					<trkpt lat="45.680290" lon="3.068700">
						<ele>686</ele>
						<time>2025-03-13T14:05:48Z</time>
					</trkpt>
					<trkpt lat="45.680090" lon="3.068680">
						<ele>684</ele>
						<time>2025-03-13T14:05:58Z</time>
					</trkpt>
					<trkpt lat="45.679470" lon="3.068560">
						<ele>680</ele>
						<time>2025-03-13T14:06:30Z</time>
					</trkpt>
					<trkpt lat="45.679050" lon="3.068350">
						<ele>677</ele>
						<time>2025-03-13T14:06:52Z</time>
					</trkpt>
					<trkpt lat="45.678750" lon="3.068310">
						<ele>676</ele>
						<time>2025-03-13T14:07:07Z</time>
					</trkpt>
					<trkpt lat="45.678380" lon="3.068320">
						<ele>674</ele>
						<time>2025-03-13T14:07:26Z</time>
					</trkpt>
					<trkpt lat="45.677640" lon="3.068430">
						<ele>675</ele>
						<time>2025-03-13T14:08:03Z</time>
					</trkpt>
					<trkpt lat="45.677440" lon="3.068470">
						<ele>675</ele>
						<time>2025-03-13T14:08:13Z</time>
					</trkpt>
					<trkpt lat="45.676810" lon="3.068630">
						<ele>675</ele>
						<time>2025-03-13T14:08:45Z</time>
					</trkpt>
					<trkpt lat="45.676360" lon="3.068710">
						<ele>675</ele>
						<time>2025-03-13T14:09:08Z</time>
					</trkpt>
					<trkpt lat="45.676150" lon="3.068740">
						<ele>675</ele>
						<time>2025-03-13T14:09:18Z</time>
					</trkpt>
					<trkpt lat="45.676120" lon="3.068660">
						<ele>674</ele>
						<time>2025-03-13T14:09:21Z</time>
					</trkpt>
					<trkpt lat="45.676120" lon="3.067970">
						<ele>673</ele>
						<time>2025-03-13T14:09:45Z</time>
					</trkpt>
					<trkpt lat="45.676400" lon="3.066960">
						<ele>672</ele>
						<time>2025-03-13T14:10:23Z</time>
					</trkpt>
					<trkpt lat="45.676640" lon="3.066270">
						<ele>674</ele>
						<time>2025-03-13T14:10:50Z</time>
					</trkpt>
					<trkpt lat="45.676730" lon="3.065740">
						<ele>674</ele>
						<time>2025-03-13T14:11:10Z</time>
					</trkpt>
					<trkpt lat="45.676800" lon="3.065200">
						<ele>671</ele>
						<time>2025-03-13T14:11:29Z</time>
					</trkpt>
					<trkpt lat="45.676820" lon="3.064930">
						<ele>670</ele>
						<time>2025-03-13T14:11:38Z</time>
					</trkpt>
					<trkpt lat="45.676890" lon="3.064760">
						<ele>669</ele>
						<time>2025-03-13T14:11:45Z</time>
					</trkpt>
					<trkpt lat="45.677080" lon="3.064650">
						<ele>669</ele>
						<time>2025-03-13T14:11:55Z</time>
					</trkpt>
					<trkpt lat="45.677490" lon="3.064640">
						<ele>670</ele>
						<time>2025-03-13T14:12:16Z</time>
					</trkpt>
					<trkpt lat="45.677620" lon="3.064600">
						<ele>671</ele>
						<time>2025-03-13T14:12:23Z</time>
					</trkpt>
					<trkpt lat="45.677890" lon="3.064400">
						<ele>671</ele>
						<time>2025-03-13T14:12:38Z</time>
					</trkpt>
					<trkpt lat="45.678000" lon="3.064260">
						<ele>670</ele>
						<time>2025-03-13T14:12:45Z</time>
					</trkpt>
					<trkpt lat="45.678620" lon="3.062880">
						<ele>680</ele>
						<time>2025-03-13T14:13:42Z</time>
					</trkpt>
					<trkpt lat="45.678640" lon="3.062710">
						<ele>681</ele>
						<time>2025-03-13T14:13:49Z</time>
					</trkpt>
					<trkpt lat="45.678620" lon="3.062350">
						<ele>682</ele>
						<time>2025-03-13T14:14:01Z</time>
					</trkpt>
					<trkpt lat="45.678620" lon="3.062100">
						<ele>683</ele>
						<time>2025-03-13T14:14:10Z</time>
					</trkpt>
					<trkpt lat="45.678640" lon="3.061990">
						<ele>684</ele>
						<time>2025-03-13T14:14:14Z</time>
					</trkpt>
					<trkpt lat="45.678680" lon="3.061900">
						<ele>685</ele>
						<time>2025-03-13T14:14:18Z</time>
					</trkpt>
					<trkpt lat="45.679120" lon="3.060870">
						<ele>698</ele>
						<time>2025-03-13T14:15:00Z</time>
					</trkpt>
					<trkpt lat="45.679190" lon="3.060650">
						<ele>700</ele>
						<time>2025-03-13T14:15:08Z</time>
					</trkpt>
					<trkpt lat="45.679190" lon="3.060360">
						<ele>702</ele>
						<time>2025-03-13T14:15:18Z</time>
					</trkpt>
					<trkpt lat="45.679070" lon="3.059620">
						<ele>704</ele>
						<time>2025-03-13T14:15:45Z</time>
					</trkpt>
					<trkpt lat="45.679080" lon="3.059450">
						<ele>705</ele>
						<time>2025-03-13T14:15:51Z</time>
					</trkpt>
					<trkpt lat="45.679210" lon="3.059050">
						<ele>709</ele>
						<time>2025-03-13T14:16:06Z</time>
					</trkpt>
					<trkpt lat="45.679090" lon="3.058600">
						<ele>710</ele>
						<time>2025-03-13T14:16:23Z</time>
					</trkpt>
					<trkpt lat="45.679090" lon="3.058360">
						<ele>712</ele>
						<time>2025-03-13T14:16:32Z</time>
					</trkpt>
					<trkpt lat="45.679130" lon="3.057960">
						<ele>715</ele>
						<time>2025-03-13T14:16:46Z</time>
					</trkpt>
					<trkpt lat="45.679100" lon="3.057750">
						<ele>716</ele>
						<time>2025-03-13T14:16:53Z</time>
					</trkpt>
					<trkpt lat="45.679070" lon="3.057660">
						<ele>716</ele>
						<time>2025-03-13T14:16:57Z</time>
					</trkpt>
					<trkpt lat="45.679060" lon="3.057490">
						<ele>717</ele>
						<time>2025-03-13T14:17:03Z</time>
					</trkpt>
					<trkpt lat="45.679080" lon="3.057230">
						<ele>718</ele>
						<time>2025-03-13T14:17:12Z</time>
					</trkpt>
					<trkpt lat="45.679160" lon="3.056780">
						<ele>720</ele>
						<time>2025-03-13T14:17:28Z</time>
					</trkpt>
					<trkpt lat="45.679360" lon="3.055390">
						<ele>731</ele>
						<time>2025-03-13T14:18:18Z</time>
					</trkpt>
					<trkpt lat="45.679390" lon="3.055020">
						<ele>735</ele>
						<time>2025-03-13T14:18:31Z</time>
					</trkpt>
					<trkpt lat="45.679390" lon="3.054840">
						<ele>738</ele>
						<time>2025-03-13T14:18:37Z</time>
					</trkpt>
					<trkpt lat="45.679360" lon="3.054280">
						<ele>746</ele>
						<time>2025-03-13T14:18:57Z</time>
					</trkpt>
					<trkpt lat="45.679120" lon="3.053340">
						<ele>755</ele>
						<time>2025-03-13T14:19:32Z</time>
					</trkpt>
					<trkpt lat="45.678920" lon="3.052850">
						<ele>758</ele>
						<time>2025-03-13T14:19:51Z</time>
					</trkpt>
					<trkpt lat="45.678890" lon="3.052730">
						<ele>760</ele>
						<time>2025-03-13T14:19:56Z</time>
					</trkpt>
					<trkpt lat="45.678870" lon="3.052340">
						<ele>766</ele>
						<time>2025-03-13T14:20:10Z</time>
					</trkpt>
					<trkpt lat="45.678880" lon="3.052030">
						<ele>771</ele>
						<time>2025-03-13T14:20:20Z</time>
					</trkpt>
					<trkpt lat="45.678920" lon="3.051860">
						<ele>775</ele>
						<time>2025-03-13T14:20:27Z</time>
					</trkpt>
					<trkpt lat="45.679190" lon="3.051210">
						<ele>792</ele>
						<time>2025-03-13T14:20:53Z</time>
					</trkpt>
					<trkpt lat="45.679320" lon="3.051060">
						<ele>796</ele>
						<time>2025-03-13T14:21:01Z</time>
					</trkpt>
					<trkpt lat="45.679440" lon="3.050980">
						<ele>799</ele>
						<time>2025-03-13T14:21:08Z</time>
					</trkpt>
					<trkpt lat="45.679590" lon="3.050910">
						<ele>802</ele>
						<time>2025-03-13T14:21:16Z</time>
					</trkpt>
					<trkpt lat="45.679690" lon="3.050920">
						<ele>803</ele>
						<time>2025-03-13T14:21:21Z</time>
					</trkpt>
					<trkpt lat="45.680300" lon="3.051200">
						<ele>807</ele>
						<time>2025-03-13T14:21:53Z</time>
					</trkpt>
					<trkpt lat="45.680640" lon="3.051390">
						<ele>808</ele>
						<time>2025-03-13T14:22:11Z</time>
					</trkpt>
					<trkpt lat="45.681290" lon="3.051830">
						<ele>809</ele>
						<time>2025-03-13T14:22:47Z</time>
					</trkpt>
					<trkpt lat="45.681550" lon="3.052130">
						<ele>808</ele>
						<time>2025-03-13T14:23:04Z</time>
					</trkpt>
					<trkpt lat="45.681870" lon="3.052710">
						<ele>805</ele>
						<time>2025-03-13T14:23:30Z</time>
					</trkpt>
					<trkpt lat="45.682040" lon="3.053240">
						<ele>803</ele>
						<time>2025-03-13T14:23:50Z</time>
					</trkpt>
					<trkpt lat="45.682110" lon="3.053690">
						<ele>802</ele>
						<time>2025-03-13T14:24:06Z</time>
					</trkpt>
					<trkpt lat="45.682070" lon="3.054050">
						<ele>798</ele>
						<time>2025-03-13T14:24:19Z</time>
					</trkpt>
					<trkpt lat="45.681990" lon="3.054440">
						<ele>794</ele>
						<time>2025-03-13T14:24:33Z</time>
					</trkpt>
					<trkpt lat="45.681830" lon="3.054810">
						<ele>788</ele>
						<time>2025-03-13T14:24:49Z</time>
					</trkpt>
					<trkpt lat="45.681780" lon="3.055000">
						<ele>785</ele>
						<time>2025-03-13T14:24:56Z</time>
					</trkpt>
					<trkpt lat="45.681770" lon="3.055230">
						<ele>782</ele>
						<time>2025-03-13T14:25:04Z</time>
					</trkpt>
					<trkpt lat="45.681830" lon="3.055550">
						<ele>781</ele>
						<time>2025-03-13T14:25:15Z</time>
					</trkpt>
					<trkpt lat="45.681940" lon="3.055680">
						<ele>782</ele>
						<time>2025-03-13T14:25:22Z</time>
					</trkpt>
					<trkpt lat="45.682190" lon="3.055980">
						<ele>785</ele>
						<time>2025-03-13T14:25:39Z</time>
					</trkpt>
					<trkpt lat="45.682310" lon="3.056210">
						<ele>785</ele>
						<time>2025-03-13T14:25:49Z</time>
					</trkpt>
					<trkpt lat="45.682530" lon="3.056410">
						<ele>787</ele>
						<time>2025-03-13T14:26:02Z</time>
					</trkpt>
					<trkpt lat="45.682600" lon="3.056470">
						<ele>787</ele>
						<time>2025-03-13T14:26:06Z</time>
					</trkpt>
					<trkpt lat="45.682810" lon="3.056580">
						<ele>789</ele>
						<time>2025-03-13T14:26:17Z</time>
					</trkpt>
					<trkpt lat="45.682900" lon="3.056660">
						<ele>789</ele>
						<time>2025-03-13T14:26:22Z</time>
					</trkpt>
					<trkpt lat="45.683090" lon="3.057070">
						<ele>790</ele>
						<time>2025-03-13T14:26:40Z</time>
					</trkpt>
					<trkpt lat="45.683150" lon="3.057090">
						<ele>791</ele>
						<time>2025-03-13T14:26:43Z</time>
					</trkpt>
					<trkpt lat="45.684620" lon="3.057640">
						<ele>787</ele>
						<time>2025-03-13T14:27:59Z</time>
					</trkpt>
					<trkpt lat="45.684630" lon="3.057540">
						<ele>787</ele>
						<time>2025-03-13T14:28:02Z</time>
					</trkpt>
					<trkpt lat="45.684690" lon="3.057070">
						<ele>788</ele>
						<time>2025-03-13T14:28:19Z</time>
					</trkpt>
					<trkpt lat="45.684720" lon="3.056660">
						<ele>789</ele>
						<time>2025-03-13T14:28:33Z</time>
					</trkpt>
					<trkpt lat="45.684630" lon="3.056570">
						<ele>790</ele>
						<time>2025-03-13T14:28:39Z</time>
					</trkpt>
					<trkpt lat="45.684550" lon="3.056480">
						<ele>791</ele>
						<time>2025-03-13T14:28:44Z</time>
					</trkpt>
					<trkpt lat="45.684500" lon="3.056430">
						<ele>792</ele>
						<time>2025-03-13T14:28:47Z</time>
					</trkpt>
					<trkpt lat="45.684460" lon="3.056360">
						<ele>793</ele>
						<time>2025-03-13T14:28:50Z</time>
					</trkpt>
					<trkpt lat="45.684300" lon="3.055880">
						<ele>797</ele>
						<time>2025-03-13T14:29:09Z</time>
					</trkpt>
					<trkpt lat="45.684220" lon="3.055600">
						<ele>800</ele>
						<time>2025-03-13T14:29:19Z</time>
					</trkpt>
					<trkpt lat="45.684140" lon="3.055290">
						<ele>803</ele>
						<time>2025-03-13T14:29:31Z</time>
					</trkpt>
					<trkpt lat="45.684110" lon="3.055190">
						<ele>804</ele>
						<time>2025-03-13T14:29:35Z</time>
					</trkpt>
					<trkpt lat="45.683700" lon="3.054530">
						<ele>810</ele>
						<time>2025-03-13T14:30:06Z</time>
					</trkpt>
					<trkpt lat="45.683640" lon="3.054480">
						<ele>810</ele>
						<time>2025-03-13T14:30:09Z</time>
					</trkpt>
					<trkpt lat="45.683530" lon="3.054430">
						<ele>811</ele>
						<time>2025-03-13T14:30:15Z</time>
					</trkpt>
					<trkpt lat="45.683060" lon="3.054390">
						<ele>811</ele>
						<time>2025-03-13T14:30:38Z</time>
					</trkpt>
					<trkpt lat="45.682990" lon="3.054350">
						<ele>810</ele>
						<time>2025-03-13T14:30:42Z</time>
					</trkpt>
					<trkpt lat="45.682930" lon="3.054290">
						<ele>810</ele>
						<time>2025-03-13T14:30:46Z</time>
					</trkpt>
					<trkpt lat="45.682880" lon="3.054180">
						<ele>810</ele>
						<time>2025-03-13T14:30:50Z</time>
					</trkpt>
					<trkpt lat="45.682790" lon="3.053900">
						<ele>811</ele>
						<time>2025-03-13T14:31:01Z</time>
					</trkpt>
					<trkpt lat="45.682750" lon="3.053730">
						<ele>812</ele>
						<time>2025-03-13T14:31:07Z</time>
					</trkpt>
					<trkpt lat="45.682700" lon="3.053360">
						<ele>814</ele>
						<time>2025-03-13T14:31:21Z</time>
					</trkpt>
					<trkpt lat="45.682660" lon="3.053240">
						<ele>815</ele>
						<time>2025-03-13T14:31:25Z</time>
					</trkpt>
					<trkpt lat="45.682500" lon="3.052830">
						<ele>817</ele>
						<time>2025-03-13T14:31:42Z</time>
					</trkpt>
					<trkpt lat="45.682480" lon="3.052750">
						<ele>817</ele>
						<time>2025-03-13T14:31:45Z</time>
					</trkpt>
					<trkpt lat="45.682470" lon="3.052290">
						<ele>822</ele>
						<time>2025-03-13T14:32:01Z</time>
					</trkpt>
					<trkpt lat="45.682450" lon="3.052170">
						<ele>823</ele>
						<time>2025-03-13T14:32:05Z</time>
					</trkpt>
					<trkpt lat="45.682410" lon="3.051950">
						<ele>825</ele>
						<time>2025-03-13T14:32:13Z</time>
					</trkpt>
					<trkpt lat="45.682280" lon="3.051580">
						<ele>828</ele>
						<time>2025-03-13T14:32:27Z</time>
					</trkpt>
					<trkpt lat="45.682250" lon="3.051510">
						<ele>828</ele>
						<time>2025-03-13T14:32:30Z</time>
					</trkpt>
					<trkpt lat="45.682190" lon="3.051430">
						<ele>828</ele>
						<time>2025-03-13T14:32:34Z</time>
					</trkpt>
					<trkpt lat="45.681910" lon="3.051150">
						<ele>829</ele>
						<time>2025-03-13T14:32:52Z</time>
					</trkpt>
					<trkpt lat="45.681710" lon="3.050990">
						<ele>830</ele>
						<time>2025-03-13T14:33:03Z</time>
					</trkpt>
					<trkpt lat="45.681530" lon="3.050860">
						<ele>831</ele>
						<time>2025-03-13T14:33:13Z</time>
					</trkpt>
					<trkpt lat="45.681650" lon="3.050470">
						<ele>836</ele>
						<time>2025-03-13T14:33:28Z</time>
					</trkpt>
					<trkpt lat="45.681640" lon="3.050290">
						<ele>838</ele>
						<time>2025-03-13T14:33:34Z</time>
					</trkpt>
					<trkpt lat="45.681630" lon="3.050130">
						<ele>839</ele>
						<time>2025-03-13T14:33:40Z</time>
					</trkpt>
					<trkpt lat="45.681670" lon="3.050020">
						<ele>840</ele>
						<time>2025-03-13T14:33:44Z</time>
					</trkpt>
					<trkpt lat="45.681730" lon="3.050010">
						<ele>840</ele>
						<time>2025-03-13T14:33:47Z</time>
					</trkpt>
					<trkpt lat="45.681800" lon="3.048780">
						<ele>848</ele>
						<time>2025-03-13T14:34:30Z</time>
					</trkpt>
					<trkpt lat="45.681600" lon="3.045520">
						<ele>875</ele>
						<time>2025-03-13T14:36:25Z</time>
					</trkpt>
					<trkpt lat="45.681200" lon="3.045140">
						<ele>876</ele>
						<time>2025-03-13T14:36:49Z</time>
					</trkpt>
					<trkpt lat="45.680840" lon="3.043350">
						<ele>891</ele>
						<time>2025-03-13T14:37:54Z</time>
					</trkpt>
					<trkpt lat="45.680750" lon="3.042890">
						<ele>893</ele>
						<time>2025-03-13T14:38:11Z</time>
					</trkpt>
					<trkpt lat="45.680280" lon="3.042360">
						<ele>893</ele>
						<time>2025-03-13T14:38:41Z</time>
					</trkpt>
					<trkpt lat="45.680240" lon="3.041050">
						<ele>897</ele>
						<time>2025-03-13T14:39:26Z</time>
					</trkpt>
					<trkpt lat="45.680310" lon="3.039360">
						<ele>902</ele>
						<time>2025-03-13T14:40:26Z</time>
					</trkpt>
					<trkpt lat="45.680330" lon="3.039160">
						<ele>903</ele>
						<time>2025-03-13T14:40:33Z</time>
					</trkpt>
					<trkpt lat="45.680500" lon="3.038830">
						<ele>906</ele>
						<time>2025-03-13T14:40:47Z</time>
					</trkpt>
					<trkpt lat="45.680520" lon="3.038730">
						<ele>907</ele>
						<time>2025-03-13T14:40:51Z</time>
					</trkpt>
					<trkpt lat="45.680480" lon="3.038350">
						<ele>908</ele>
						<time>2025-03-13T14:41:04Z</time>
					</trkpt>
					<trkpt lat="45.680480" lon="3.038180">
						<ele>909</ele>
						<time>2025-03-13T14:41:10Z</time>
					</trkpt>
					<trkpt lat="45.680540" lon="3.037810">
						<ele>911</ele>
						<time>2025-03-13T14:41:23Z</time>
					</trkpt>
					<trkpt lat="45.680540" lon="3.036840">
						<ele>913</ele>
						<time>2025-03-13T14:41:57Z</time>
					</trkpt>
					<trkpt lat="45.680600" lon="3.036530">
						<ele>914</ele>
						<time>2025-03-13T14:42:09Z</time>
					</trkpt>
					<trkpt lat="45.680680" lon="3.036050">
						<ele>917</ele>
						<time>2025-03-13T14:42:26Z</time>
					</trkpt>
					<trkpt lat="45.680700" lon="3.035910">
						<ele>918</ele>
						<time>2025-03-13T14:42:31Z</time>
					</trkpt>
					<trkpt lat="45.680760" lon="3.035230">
						<ele>921</ele>
						<time>2025-03-13T14:42:55Z</time>
					</trkpt>
					<trkpt lat="45.680740" lon="3.035080">
						<ele>921</ele>
						<time>2025-03-13T14:43:00Z</time>
					</trkpt>
					<trkpt lat="45.680680" lon="3.034850">
						<ele>920</ele>
						<time>2025-03-13T14:43:09Z</time>
					</trkpt>
					<trkpt lat="45.680660" lon="3.034610">
						<ele>920</ele>
						<time>2025-03-13T14:43:17Z</time>
					</trkpt>
					<trkpt lat="45.680670" lon="3.034480">
						<ele>920</ele>
						<time>2025-03-13T14:43:22Z</time>
					</trkpt>
					<trkpt lat="45.680700" lon="3.034250">
						<ele>920</ele>
						<time>2025-03-13T14:43:30Z</time>
					</trkpt>
					<trkpt lat="45.680740" lon="3.034170">
						<ele>921</ele>
						<time>2025-03-13T14:43:33Z</time>
					</trkpt>
					<trkpt lat="45.680800" lon="3.034130">
						<ele>921</ele>
						<time>2025-03-13T14:43:37Z</time>
					</trkpt>
					<trkpt lat="45.680960" lon="3.034070">
						<ele>923</ele>
						<time>2025-03-13T14:43:45Z</time>
					</trkpt>
					<trkpt lat="45.681490" lon="3.034040">
						<ele>929</ele>
						<time>2025-03-13T14:44:11Z</time>
					</trkpt>
					<trkpt lat="45.681700" lon="3.033920">
						<ele>931</ele>
						<time>2025-03-13T14:44:23Z</time>
					</trkpt>
					<trkpt lat="45.681760" lon="3.033860">
						<ele>932</ele>
						<time>2025-03-13T14:44:26Z</time>
					</trkpt>
					<trkpt lat="45.681910" lon="3.033540">
						<ele>934</ele>
						<time>2025-03-13T14:44:40Z</time>
					</trkpt>
					<trkpt lat="45.681910" lon="3.033450">
						<ele>934</ele>
						<time>2025-03-13T14:44:43Z</time>
					</trkpt>
					<trkpt lat="45.681850" lon="3.033200">
						<ele>935</ele>
						<time>2025-03-13T14:44:52Z</time>
					</trkpt>
					<trkpt lat="45.681760" lon="3.032930">
						<ele>936</ele>
						<time>2025-03-13T14:45:03Z</time>
					</trkpt>
					<trkpt lat="45.681660" lon="3.032710">
						<ele>936</ele>
						<time>2025-03-13T14:45:12Z</time>
					</trkpt>
					<trkpt lat="45.681630" lon="3.032580">
						<ele>936</ele>
						<time>2025-03-13T14:45:17Z</time>
					</trkpt>
					<trkpt lat="45.681670" lon="3.032340">
						<ele>938</ele>
						<time>2025-03-13T14:45:25Z</time>
					</trkpt>
					<trkpt lat="45.681660" lon="3.031930">
						<ele>940</ele>
						<time>2025-03-13T14:45:40Z</time>
					</trkpt>
					<trkpt lat="45.681620" lon="3.031540">
						<ele>941</ele>
						<time>2025-03-13T14:45:53Z</time>
					</trkpt>
					<trkpt lat="45.681620" lon="3.031310">
						<ele>942</ele>
						<time>2025-03-13T14:46:01Z</time>
					</trkpt>
					<trkpt lat="45.681700" lon="3.030560">
						<ele>945</ele>
						<time>2025-03-13T14:46:28Z</time>
					</trkpt>
					<trkpt lat="45.681710" lon="3.030140">
						<ele>944</ele>
						<time>2025-03-13T14:46:43Z</time>
					</trkpt>
					<trkpt lat="45.681700" lon="3.029790">
						<ele>945</ele>
						<time>2025-03-13T14:46:55Z</time>
					</trkpt>
					<trkpt lat="45.681470" lon="3.028330">
						<ele>947</ele>
						<time>2025-03-13T14:47:47Z</time>
					</trkpt>
					<trkpt lat="45.681460" lon="3.028100">
						<ele>947</ele>
						<time>2025-03-13T14:47:55Z</time>
					</trkpt>
					<trkpt lat="45.681500" lon="3.027860">
						<ele>948</ele>
						<time>2025-03-13T14:48:04Z</time>
					</trkpt>
					<trkpt lat="45.681520" lon="3.027050">
						<ele>945</ele>
						<time>2025-03-13T14:48:32Z</time>
					</trkpt>
					<trkpt lat="45.681560" lon="3.026870">
						<ele>945</ele>
						<time>2025-03-13T14:48:39Z</time>
					</trkpt>
					<trkpt lat="45.681610" lon="3.026690">
						<ele>945</ele>
						<time>2025-03-13T14:48:46Z</time>
					</trkpt>
					<trkpt lat="45.681740" lon="3.026360">
						<ele>945</ele>
						<time>2025-03-13T14:48:59Z</time>
					</trkpt>
					<trkpt lat="45.681770" lon="3.026250">
						<ele>945</ele>
						<time>2025-03-13T14:49:03Z</time>
					</trkpt>
					<trkpt lat="45.681800" lon="3.026120">
						<ele>944</ele>
						<time>2025-03-13T14:49:08Z</time>
					</trkpt>
					<trkpt lat="45.681850" lon="3.025950">
						<ele>944</ele>
						<time>2025-03-13T14:49:14Z</time>
					</trkpt>
					<trkpt lat="45.681900" lon="3.025680">
						<ele>944</ele>
						<time>2025-03-13T14:49:24Z</time>
					</trkpt>
					<trkpt lat="45.681950" lon="3.025500">
						<ele>944</ele>
						<time>2025-03-13T14:49:31Z</time>
					</trkpt>
					<trkpt lat="45.682060" lon="3.025660">
						<ele>946</ele>
						<time>2025-03-13T14:49:39Z</time>
					</trkpt>
					<trkpt lat="45.682540" lon="3.026460">
						<ele>952</ele>
						<time>2025-03-13T14:50:16Z</time>
					</trkpt>
					<trkpt lat="45.683080" lon="3.027880">
						<ele>951</ele>
						<time>2025-03-13T14:51:12Z</time>
					</trkpt>
					<trkpt lat="45.683780" lon="3.029170">
						<ele>949</ele>
						<time>2025-03-13T14:52:09Z</time>
					</trkpt>
					<trkpt lat="45.684040" lon="3.029360">
						<ele>947</ele>
						<time>2025-03-13T14:52:24Z</time>
					</trkpt>
					<trkpt lat="45.684550" lon="3.029560">
						<ele>945</ele>
						<time>2025-03-13T14:52:50Z</time>
					</trkpt>
					<trkpt lat="45.684790" lon="3.029700">
						<ele>944</ele>
						<time>2025-03-13T14:53:03Z</time>
					</trkpt>
					<trkpt lat="45.685370" lon="3.029910">
						<ele>942</ele>
						<time>2025-03-13T14:53:33Z</time>
					</trkpt>
					<trkpt lat="45.685160" lon="3.030520">
						<ele>939</ele>
						<time>2025-03-13T14:53:57Z</time>
					</trkpt>
					<trkpt lat="45.684940" lon="3.030910">
						<ele>938</ele>
						<time>2025-03-13T14:54:14Z</time>
					</trkpt>
					<trkpt lat="45.684700" lon="3.031480">
						<ele>936</ele>
						<time>2025-03-13T14:54:38Z</time>
					</trkpt>
					<trkpt lat="45.684600" lon="3.031860">
						<ele>936</ele>
						<time>2025-03-13T14:54:52Z</time>
					</trkpt>
					<trkpt lat="45.684580" lon="3.032160">
						<ele>934</ele>
						<time>2025-03-13T14:55:02Z</time>
					</trkpt>
					<trkpt lat="45.684510" lon="3.032360">
						<ele>934</ele>
						<time>2025-03-13T14:55:10Z</time>
					</trkpt>
					<trkpt lat="45.684440" lon="3.032680">
						<ele>933</ele>
						<time>2025-03-13T14:55:22Z</time>
					</trkpt>
					<trkpt lat="45.684310" lon="3.033090">
						<ele>930</ele>
						<time>2025-03-13T14:55:38Z</time>
					</trkpt>
					<trkpt lat="45.684250" lon="3.033490">
						<ele>927</ele>
						<time>2025-03-13T14:55:52Z</time>
					</trkpt>
					<trkpt lat="45.684220" lon="3.033760">
						<ele>926</ele>
						<time>2025-03-13T14:56:02Z</time>
					</trkpt>
					<trkpt lat="45.684120" lon="3.034190">
						<ele>923</ele>
						<time>2025-03-13T14:56:17Z</time>
					</trkpt>
					<trkpt lat="45.684090" lon="3.034460">
						<ele>923</ele>
						<time>2025-03-13T14:56:27Z</time>
					</trkpt>
					<trkpt lat="45.684050" lon="3.034790">
						<ele>923</ele>
						<time>2025-03-13T14:56:39Z</time>
					</trkpt>
					<trkpt lat="45.684070" lon="3.035040">
						<ele>923</ele>
						<time>2025-03-13T14:56:48Z</time>
					</trkpt>
					<trkpt lat="45.684080" lon="3.035180">
						<ele>923</ele>
						<time>2025-03-13T14:56:52Z</time>
					</trkpt>
					<trkpt lat="45.684050" lon="3.035400">
						<ele>923</ele>
						<time>2025-03-13T14:57:00Z</time>
					</trkpt>
					<trkpt lat="45.684030" lon="3.035730">
						<ele>923</ele>
						<time>2025-03-13T14:57:12Z</time>
					</trkpt>
					<trkpt lat="45.684030" lon="3.035990">
						<ele>922</ele>
						<time>2025-03-13T14:57:21Z</time>
					</trkpt>
					<trkpt lat="45.684040" lon="3.036200">
						<ele>921</ele>
						<time>2025-03-13T14:57:28Z</time>
					</trkpt>
					<trkpt lat="45.684020" lon="3.036430">
						<ele>921</ele>
						<time>2025-03-13T14:57:36Z</time>
					</trkpt>
					<trkpt lat="45.683900" lon="3.037060">
						<ele>918</ele>
						<time>2025-03-13T14:57:59Z</time>
					</trkpt>
					<trkpt lat="45.683850" lon="3.037360">
						<ele>917</ele>
						<time>2025-03-13T14:58:10Z</time>
					</trkpt>
					<trkpt lat="45.683840" lon="3.037550">
						<ele>916</ele>
						<time>2025-03-13T14:58:17Z</time>
					</trkpt>
					<trkpt lat="45.683840" lon="3.037700">
						<ele>915</ele>
						<time>2025-03-13T14:58:22Z</time>
					</trkpt>
					<trkpt lat="45.683870" lon="3.038000">
						<ele>914</ele>
						<time>2025-03-13T14:58:33Z</time>
					</trkpt>
					<trkpt lat="45.683910" lon="3.038350">
						<ele>911</ele>
						<time>2025-03-13T14:58:45Z</time>
					</trkpt>
					<trkpt lat="45.683910" lon="3.038580">
						<ele>910</ele>
						<time>2025-03-13T14:58:53Z</time>
					</trkpt>
					<trkpt lat="45.683930" lon="3.038900">
						<ele>908</ele>
						<time>2025-03-13T14:59:04Z</time>
					</trkpt>
					<trkpt lat="45.684000" lon="3.039180">
						<ele>905</ele>
						<time>2025-03-13T14:59:15Z</time>
					</trkpt>
					<trkpt lat="45.684070" lon="3.039160">
						<ele>905</ele>
						<time>2025-03-13T14:59:18Z</time>
					</trkpt>
					<trkpt lat="45.684380" lon="3.039020">
						<ele>903</ele>
						<time>2025-03-13T14:59:34Z</time>
					</trkpt>
					<trkpt lat="45.684570" lon="3.039060">
						<ele>900</ele>
						<time>2025-03-13T14:59:44Z</time>
					</trkpt>
					<trkpt lat="45.684740" lon="3.039060">
						<ele>898</ele>
						<time>2025-03-13T14:59:53Z</time>
					</trkpt>
					<trkpt lat="45.684890" lon="3.039020">
						<ele>897</ele>
						<time>2025-03-13T15:00:00Z</time>
					</trkpt>
					<trkpt lat="45.684990" lon="3.038890">
						<ele>896</ele>
						<time>2025-03-13T15:00:07Z</time>
					</trkpt>
					<trkpt lat="45.685050" lon="3.038770">
						<ele>895</ele>
						<time>2025-03-13T15:00:12Z</time>
					</trkpt>
					<trkpt lat="45.685070" lon="3.038640">
						<ele>895</ele>
						<time>2025-03-13T15:00:17Z</time>
					</trkpt>
					<trkpt lat="45.685080" lon="3.038490">
						<ele>895</ele>
						<time>2025-03-13T15:00:22Z</time>
					</trkpt>
					<trkpt lat="45.685270" lon="3.037530">
						<ele>895</ele>
						<time>2025-03-13T15:00:57Z</time>
					</trkpt>
					<trkpt lat="45.685370" lon="3.037200">
						<ele>893</ele>
						<time>2025-03-13T15:01:09Z</time>
					</trkpt>
					<trkpt lat="45.685360" lon="3.036870">
						<ele>895</ele>
						<time>2025-03-13T15:01:21Z</time>
					</trkpt>
					<trkpt lat="45.685400" lon="3.036500">
						<ele>895</ele>
						<time>2025-03-13T15:01:34Z</time>
					</trkpt>
					<trkpt lat="45.685420" lon="3.036120">
						<ele>895</ele>
						<time>2025-03-13T15:01:47Z</time>
					</trkpt>
					<trkpt lat="45.685540" lon="3.035610">
						<ele>892</ele>
						<time>2025-03-13T15:02:06Z</time>
					</trkpt>
					<trkpt lat="45.685710" lon="3.035110">
						<ele>890</ele>
						<time>2025-03-13T15:02:26Z</time>
					</trkpt>
					<trkpt lat="45.685900" lon="3.034710">
						<ele>890</ele>
						<time>2025-03-13T15:02:43Z</time>
					</trkpt>
					<trkpt lat="45.686050" lon="3.034480">
						<ele>890</ele>
						<time>2025-03-13T15:02:54Z</time>
					</trkpt>
					<trkpt lat="45.686250" lon="3.034320">
						<ele>889</ele>
						<time>2025-03-13T15:03:05Z</time>
					</trkpt>
					<trkpt lat="45.686530" lon="3.034160">
						<ele>887</ele>
						<time>2025-03-13T15:03:20Z</time>
					</trkpt>
					<trkpt lat="45.686720" lon="3.034200">
						<ele>884</ele>
						<time>2025-03-13T15:03:30Z</time>
					</trkpt>
					<trkpt lat="45.686890" lon="3.034170">
						<ele>882</ele>
						<time>2025-03-13T15:03:38Z</time>
					</trkpt>
					<trkpt lat="45.687410" lon="3.034130">
						<ele>876</ele>
						<time>2025-03-13T15:04:04Z</time>
					</trkpt>
					<trkpt lat="45.687560" lon="3.034070">
						<ele>874</ele>
						<time>2025-03-13T15:04:12Z</time>
					</trkpt>
					<trkpt lat="45.687920" lon="3.033990">
						<ele>868</ele>
						<time>2025-03-13T15:04:30Z</time>
					</trkpt>
					<trkpt lat="45.688030" lon="3.033840">
						<ele>868</ele>
						<time>2025-03-13T15:04:38Z</time>
					</trkpt>
					<trkpt lat="45.688070" lon="3.033640">
						<ele>870</ele>
						<time>2025-03-13T15:04:45Z</time>
					</trkpt>
					<trkpt lat="45.688140" lon="3.033460">
						<ele>871</ele>
						<time>2025-03-13T15:04:52Z</time>
					</trkpt>
					<trkpt lat="45.688210" lon="3.033380">
						<ele>870</ele>
						<time>2025-03-13T15:04:57Z</time>
					</trkpt>
					<trkpt lat="45.688290" lon="3.033360">
						<ele>869</ele>
						<time>2025-03-13T15:05:01Z</time>
					</trkpt>
					<trkpt lat="45.688370" lon="3.033280">
						<ele>869</ele>
						<time>2025-03-13T15:05:06Z</time>
					</trkpt>
					<trkpt lat="45.688500" lon="3.033210">
						<ele>871</ele>
						<time>2025-03-13T15:05:13Z</time>
					</trkpt>
					<trkpt lat="45.688570" lon="3.033210">
						<ele>872</ele>
						<time>2025-03-13T15:05:16Z</time>
					</trkpt>
					<trkpt lat="45.688620" lon="3.033160">
						<ele>873</ele>
						<time>2025-03-13T15:05:19Z</time>
					</trkpt>
					<trkpt lat="45.688750" lon="3.033100">
						<ele>875</ele>
						<time>2025-03-13T15:05:26Z</time>
					</trkpt>
					<trkpt lat="45.688850" lon="3.033110">
						<ele>876</ele>
						<time>2025-03-13T15:05:31Z</time>
					</trkpt>
					<trkpt lat="45.688960" lon="3.033200">
						<ele>876</ele>
						<time>2025-03-13T15:05:38Z</time>
					</trkpt>
					<trkpt lat="45.689550" lon="3.033720">
						<ele>878</ele>
						<time>2025-03-13T15:06:12Z</time>
					</trkpt>
					<trkpt lat="45.689640" lon="3.033770">
						<ele>879</ele>
						<time>2025-03-13T15:06:17Z</time>
					</trkpt>
					<trkpt lat="45.689730" lon="3.033750">
						<ele>881</ele>
						<time>2025-03-13T15:06:22Z</time>
					</trkpt>
					<trkpt lat="45.689790" lon="3.033750">
						<ele>882</ele>
						<time>2025-03-13T15:06:25Z</time>
					</trkpt>
					<trkpt lat="45.689840" lon="3.033810">
						<ele>882</ele>
						<time>2025-03-13T15:06:28Z</time>
					</trkpt>
					<trkpt lat="45.689960" lon="3.033940">
						<ele>883</ele>
						<time>2025-03-13T15:06:35Z</time>
					</trkpt>
					<trkpt lat="45.690050" lon="3.034040">
						<ele>883</ele>
						<time>2025-03-13T15:06:41Z</time>
					</trkpt>
					<trkpt lat="45.690240" lon="3.034160">
						<ele>882</ele>
						<time>2025-03-13T15:06:52Z</time>
					</trkpt>
					<trkpt lat="45.690270" lon="3.034160">
						<ele>882</ele>
						<time>2025-03-13T15:06:53Z</time>
					</trkpt>
					<trkpt lat="45.690340" lon="3.034230">
						<ele>881</ele>
						<time>2025-03-13T15:06:57Z</time>
					</trkpt>
					<trkpt lat="45.690470" lon="3.034240">
						<ele>882</ele>
						<time>2025-03-13T15:07:04Z</time>
					</trkpt>
					<trkpt lat="45.690760" lon="3.034230">
						<ele>883</ele>
						<time>2025-03-13T15:07:18Z</time>
					</trkpt>
					<trkpt lat="45.690840" lon="3.034220">
						<ele>884</ele>
						<time>2025-03-13T15:07:22Z</time>
					</trkpt>
					<trkpt lat="45.690980" lon="3.034140">
						<ele>884</ele>
						<time>2025-03-13T15:07:30Z</time>
					</trkpt>
					<trkpt lat="45.691320" lon="3.034010">
						<ele>884</ele>
						<time>2025-03-13T15:07:48Z</time>
					</trkpt>
					<trkpt lat="45.692080" lon="3.033990">
						<ele>880</ele>
						<time>2025-03-13T15:08:26Z</time>
					</trkpt>
					<trkpt lat="45.692040" lon="3.034060">
						<ele>879</ele>
						<time>2025-03-13T15:08:29Z</time>
					</trkpt>
					<trkpt lat="45.692130" lon="3.034220">
						<ele>877</ele>
						<time>2025-03-13T15:08:36Z</time>
					</trkpt>
					<trkpt lat="45.692300" lon="3.034430">
						<ele>875</ele>
						<time>2025-03-13T15:08:47Z</time>
					</trkpt>
					<trkpt lat="45.692460" lon="3.034580">
						<ele>873</ele>
						<time>2025-03-13T15:08:57Z</time>
					</trkpt>
					<trkpt lat="45.692610" lon="3.034720">
						<ele>871</ele>
						<time>2025-03-13T15:09:06Z</time>
					</trkpt>
					<trkpt lat="45.692720" lon="3.034780">
						<ele>870</ele>
						<time>2025-03-13T15:09:12Z</time>
					</trkpt>
					<trkpt lat="45.692860" lon="3.034820">
						<ele>868</ele>
						<time>2025-03-13T15:09:19Z</time>
					</trkpt>
					<trkpt lat="45.693000" lon="3.034900">
						<ele>867</ele>
						<time>2025-03-13T15:09:26Z</time>
					</trkpt>
					<trkpt lat="45.693050" lon="3.034930">
						<ele>866</ele>
						<time>2025-03-13T15:09:29Z</time>
					</trkpt>
					<trkpt lat="45.693240" lon="3.035100">
						<ele>863</ele>
						<time>2025-03-13T15:09:40Z</time>
					</trkpt>
					<trkpt lat="45.693340" lon="3.035280">
						<ele>860</ele>
						<time>2025-03-13T15:09:48Z</time>
					</trkpt>
					<trkpt lat="45.693430" lon="3.035570">
						<ele>856</ele>
						<time>2025-03-13T15:09:59Z</time>
					</trkpt>
					<trkpt lat="45.693490" lon="3.035730">
						<ele>854</ele>
						<time>2025-03-13T15:10:06Z</time>
					</trkpt>
					<trkpt lat="45.693580" lon="3.035890">
						<ele>852</ele>
						<time>2025-03-13T15:10:13Z</time>
					</trkpt>
					<trkpt lat="45.693730" lon="3.036050">
						<ele>849</ele>
						<time>2025-03-13T15:10:22Z</time>
					</trkpt>
					<trkpt lat="45.693800" lon="3.036190">
						<ele>847</ele>
						<time>2025-03-13T15:10:28Z</time>
					</trkpt>
					<trkpt lat="45.693780" lon="3.036420">
						<ele>845</ele>
						<time>2025-03-13T15:10:36Z</time>
					</trkpt>
					<trkpt lat="45.693860" lon="3.036630">
						<ele>842</ele>
						<time>2025-03-13T15:10:45Z</time>
					</trkpt>
					<trkpt lat="45.693980" lon="3.036880">
						<ele>838</ele>
						<time>2025-03-13T15:10:55Z</time>
					</trkpt>
					<trkpt lat="45.694240" lon="3.037190">
						<ele>833</ele>
						<time>2025-03-13T15:11:12Z</time>
					</trkpt>
					<trkpt lat="45.694600" lon="3.037450">
						<ele>831</ele>
						<time>2025-03-13T15:11:32Z</time>
					</trkpt>
					<trkpt lat="45.694730" lon="3.037660">
						<ele>830</ele>
						<time>2025-03-13T15:11:42Z</time>
					</trkpt>
					<trkpt lat="45.694790" lon="3.037740">
						<ele>830</ele>
						<time>2025-03-13T15:11:46Z</time>
					</trkpt>
					<trkpt lat="45.694880" lon="3.037810">
						<ele>830</ele>
						<time>2025-03-13T15:11:51Z</time>
					</trkpt>
					<trkpt lat="45.694900" lon="3.037940">
						<ele>830</ele>
						<time>2025-03-13T15:11:56Z</time>
					</trkpt>
					<trkpt lat="45.694920" lon="3.038080">
						<ele>829</ele>
						<time>2025-03-13T15:12:01Z</time>
					</trkpt>
					<trkpt lat="45.694850" lon="3.038440">
						<ele>826</ele>
						<time>2025-03-13T15:12:14Z</time>
					</trkpt>
					<trkpt lat="45.694950" lon="3.038880">
						<ele>825</ele>
						<time>2025-03-13T15:12:30Z</time>
					</trkpt>
					<trkpt lat="45.695080" lon="3.039320">
						<ele>823</ele>
						<time>2025-03-13T15:12:47Z</time>
					</trkpt>
					<trkpt lat="45.695160" lon="3.039700">
						<ele>821</ele>
						<time>2025-03-13T15:13:01Z</time>
					</trkpt>
					<trkpt lat="45.695210" lon="3.040280">
						<ele>817</ele>
						<time>2025-03-13T15:13:21Z</time>
					</trkpt>
					<trkpt lat="45.695180" lon="3.040940">
						<ele>812</ele>
						<time>2025-03-13T15:13:44Z</time>
					</trkpt>
					<trkpt lat="45.695190" lon="3.041430">
						<ele>807</ele>
						<time>2025-03-13T15:14:02Z</time>
					</trkpt>
					<trkpt lat="45.695380" lon="3.042580">
						<ele>799</ele>
						<time>2025-03-13T15:14:43Z</time>
					</trkpt>
					<trkpt lat="45.695420" lon="3.042920">
						<ele>795</ele>
						<time>2025-03-13T15:14:55Z</time>
					</trkpt>
					<trkpt lat="45.695490" lon="3.043120">
						<ele>794</ele>
						<time>2025-03-13T15:15:03Z</time>
					</trkpt>
					<trkpt lat="45.695560" lon="3.043330">
						<ele>793</ele>
						<time>2025-03-13T15:15:11Z</time>
					</trkpt>
					<trkpt lat="45.695600" lon="3.043590">
						<ele>792</ele>
						<time>2025-03-13T15:15:20Z</time>
					</trkpt>
					<trkpt lat="45.695600" lon="3.043780">
						<ele>791</ele>
						<time>2025-03-13T15:15:27Z</time>
					</trkpt>
					<trkpt lat="45.695460" lon="3.044220">
						<ele>787</ele>
						<time>2025-03-13T15:15:44Z</time>
					</trkpt>
					<trkpt lat="45.695410" lon="3.044510">
						<ele>786</ele>
						<time>2025-03-13T15:15:54Z</time>
					</trkpt>
					<trkpt lat="45.695330" lon="3.044840">
						<ele>784</ele>
						<time>2025-03-13T15:16:06Z</time>
					</trkpt>
					<trkpt lat="45.695230" lon="3.045060">
						<ele>784</ele>
						<time>2025-03-13T15:16:16Z</time>
					</trkpt>
					<trkpt lat="45.695110" lon="3.045200">
						<ele>784</ele>
						<time>2025-03-13T15:16:23Z</time>
					</trkpt>
					<trkpt lat="45.695000" lon="3.045220">
						<ele>784</ele>
						<time>2025-03-13T15:16:29Z</time>
					</trkpt>
					<trkpt lat="45.694910" lon="3.045190">
						<ele>783</ele>
						<time>2025-03-13T15:16:33Z</time>
					</trkpt>
					<trkpt lat="45.694840" lon="3.045100">
						<ele>782</ele>
						<time>2025-03-13T15:16:38Z</time>
					</trkpt>
					<trkpt lat="45.694820" lon="3.044880">
						<ele>781</ele>
						<time>2025-03-13T15:16:46Z</time>
					</trkpt>
					<trkpt lat="45.694820" lon="3.044610">
						<ele>780</ele>
						<time>2025-03-13T15:16:55Z</time>
					</trkpt>
					<trkpt lat="45.694770" lon="3.044530">
						<ele>779</ele>
						<time>2025-03-13T15:16:59Z</time>
					</trkpt>
					<trkpt lat="45.694690" lon="3.044550">
						<ele>777</ele>
						<time>2025-03-13T15:17:03Z</time>
					</trkpt>
					<trkpt lat="45.694560" lon="3.044640">
						<ele>776</ele>
						<time>2025-03-13T15:17:10Z</time>
					</trkpt>
					<trkpt lat="45.694300" lon="3.044780">
						<ele>773</ele>
						<time>2025-03-13T15:17:24Z</time>
					</trkpt>
					<trkpt lat="45.694080" lon="3.044790">
						<ele>769</ele>
						<time>2025-03-13T15:17:35Z</time>
					</trkpt>
					<trkpt lat="45.693790" lon="3.044830">
						<ele>762</ele>
						<time>2025-03-13T15:17:50Z</time>
					</trkpt>
					<trkpt lat="45.693740" lon="3.044780">
						<ele>760</ele>
						<time>2025-03-13T15:17:53Z</time>
					</trkpt>
					<trkpt lat="45.693740" lon="3.044690">
						<ele>759</ele>
						<time>2025-03-13T15:17:56Z</time>
					</trkpt>
					<trkpt lat="45.693970" lon="3.044380">
						<ele>761</ele>
						<time>2025-03-13T15:18:12Z</time>
					</trkpt>
					<trkpt lat="45.694030" lon="3.044170">
						<ele>760</ele>
						<time>2025-03-13T15:18:20Z</time>
					</trkpt>
					<trkpt lat="45.694030" lon="3.043980">
						<ele>761</ele>
						<time>2025-03-13T15:18:26Z</time>
					</trkpt>
					<trkpt lat="45.693980" lon="3.043870">
						<ele>760</ele>
						<time>2025-03-13T15:18:31Z</time>
					</trkpt>
					<trkpt lat="45.693860" lon="3.043770">
						<ele>757</ele>
						<time>2025-03-13T15:18:38Z</time>
					</trkpt>
					<trkpt lat="45.693660" lon="3.043490">
						<ele>754</ele>
						<time>2025-03-13T15:18:52Z</time>
					</trkpt>
					<trkpt lat="45.693520" lon="3.043370">
						<ele>751</ele>
						<time>2025-03-13T15:19:00Z</time>
					</trkpt>
					<trkpt lat="45.693400" lon="3.043250">
						<ele>749</ele>
						<time>2025-03-13T15:19:08Z</time>
					</trkpt>
					<trkpt lat="45.692840" lon="3.043010">
						<ele>738</ele>
						<time>2025-03-13T15:19:37Z</time>
					</trkpt>
					<trkpt lat="45.692670" lon="3.042950">
						<ele>735</ele>
						<time>2025-03-13T15:19:46Z</time>
					</trkpt>
					<trkpt lat="45.692190" lon="3.042530">
						<ele>729</ele>
						<time>2025-03-13T15:20:14Z</time>
					</trkpt>
					<trkpt lat="45.692010" lon="3.042460">
						<ele>725</ele>
						<time>2025-03-13T15:20:23Z</time>
					</trkpt>
					<trkpt lat="45.691860" lon="3.042460">
						<ele>721</ele>
						<time>2025-03-13T15:20:31Z</time>
					</trkpt>
					<trkpt lat="45.691690" lon="3.042540">
						<ele>715</ele>
						<time>2025-03-13T15:20:39Z</time>
					</trkpt>
					<trkpt lat="45.691630" lon="3.042670">
						<ele>713</ele>
						<time>2025-03-13T15:20:45Z</time>
					</trkpt>
					<trkpt lat="45.691610" lon="3.042840">
						<ele>711</ele>
						<time>2025-03-13T15:20:51Z</time>
					</trkpt>
					<trkpt lat="45.691670" lon="3.043020">
						<ele>709</ele>
						<time>2025-03-13T15:20:58Z</time>
					</trkpt>
					<trkpt lat="45.691740" lon="3.043080">
						<ele>710</ele>
						<time>2025-03-13T15:21:02Z</time>
					</trkpt>
					<trkpt lat="45.691980" lon="3.043430">
						<ele>712</ele>
						<time>2025-03-13T15:21:19Z</time>
					</trkpt>
					<trkpt lat="45.691940" lon="3.043620">
						<ele>709</ele>
						<time>2025-03-13T15:21:26Z</time>
					</trkpt>
					<trkpt lat="45.691870" lon="3.043650">
						<ele>707</ele>
						<time>2025-03-13T15:21:30Z</time>
					</trkpt>
					<trkpt lat="45.691710" lon="3.043610">
						<ele>705</ele>
						<time>2025-03-13T15:21:38Z</time>
					</trkpt>
					<trkpt lat="45.691620" lon="3.043680">
						<ele>703</ele>
						<time>2025-03-13T15:21:43Z</time>
					</trkpt>
					<trkpt lat="45.691580" lon="3.043860">
						<ele>701</ele>
						<time>2025-03-13T15:21:50Z</time>
					</trkpt>
					<trkpt lat="45.691690" lon="3.044280">
						<ele>700</ele>
						<time>2025-03-13T15:22:05Z</time>
					</trkpt>
					<trkpt lat="45.691620" lon="3.044560">
						<ele>699</ele>
						<time>2025-03-13T15:22:16Z</time>
					</trkpt>
					<trkpt lat="45.691350" lon="3.045390">
						<ele>696</ele>
						<time>2025-03-13T15:22:48Z</time>
					</trkpt>
					<trkpt lat="45.691250" lon="3.045930">
						<ele>694</ele>
						<time>2025-03-13T15:23:07Z</time>
					</trkpt>
					<trkpt lat="45.690980" lon="3.046250">
						<ele>687</ele>
						<time>2025-03-13T15:23:25Z</time>
					</trkpt>
					<trkpt lat="45.690890" lon="3.046800">
						<ele>684</ele>
						<time>2025-03-13T15:23:44Z</time>
					</trkpt>
					<trkpt lat="45.691020" lon="3.047510">
						<ele>686</ele>
						<time>2025-03-13T15:24:10Z</time>
					</trkpt>
					<trkpt lat="45.690770" lon="3.048420">
						<ele>681</ele>
						<time>2025-03-13T15:24:44Z</time>
					</trkpt>
					<trkpt lat="45.690730" lon="3.049030">
						<ele>681</ele>
						<time>2025-03-13T15:25:06Z</time>
					</trkpt>
					<trkpt lat="45.690730" lon="3.049050">
						<ele>681</ele>
						<time>2025-03-13T15:25:06Z</time>
					</trkpt>
					<trkpt lat="45.690660" lon="3.049750">
						<ele>676</ele>
						<time>2025-03-13T15:25:31Z</time>
					</trkpt>
					<trkpt lat="45.690690" lon="3.050360">
						<ele>670</ele>
						<time>2025-03-13T15:25:53Z</time>
					</trkpt>
					<trkpt lat="45.690930" lon="3.051080">
						<ele>667</ele>
						<time>2025-03-13T15:26:20Z</time>
					</trkpt>
					<trkpt lat="45.690990" lon="3.051740">
						<ele>663</ele>
						<time>2025-03-13T15:26:44Z</time>
					</trkpt>
					<trkpt lat="45.691220" lon="3.052120">
						<ele>664</ele>
						<time>2025-03-13T15:27:01Z</time>
					</trkpt>
					<trkpt lat="45.691490" lon="3.052530">
						<ele>660</ele>
						<time>2025-03-13T15:27:21Z</time>
					</trkpt>
					<trkpt lat="45.691920" lon="3.053090">
						<ele>657</ele>
						<time>2025-03-13T15:27:50Z</time>
					</trkpt>
					<trkpt lat="45.692410" lon="3.053790">
						<ele>651</ele>
						<time>2025-03-13T15:28:25Z</time>
					</trkpt>
					<trkpt lat="45.692990" lon="3.054330">
						<ele>645</ele>
						<time>2025-03-13T15:28:59Z</time>
					</trkpt>
					<trkpt lat="45.693070" lon="3.054550">
						<ele>643</ele>
						<time>2025-03-13T15:29:08Z</time>
					</trkpt>
					<trkpt lat="45.693140" lon="3.054860">
						<ele>639</ele>
						<time>2025-03-13T15:29:19Z</time>
					</trkpt>
					<trkpt lat="45.693280" lon="3.055090">
						<ele>636</ele>
						<time>2025-03-13T15:29:30Z</time>
					</trkpt>
					<trkpt lat="45.693390" lon="3.055270">
						<ele>635</ele>
						<time>2025-03-13T15:29:38Z</time>
					</trkpt>
					<trkpt lat="45.693490" lon="3.055560">
						<ele>634</ele>
						<time>2025-03-13T15:29:50Z</time>
					</trkpt>
					<trkpt lat="45.693650" lon="3.055920">
						<ele>634</ele>
						<time>2025-03-13T15:30:05Z</time>
					</trkpt>
					<trkpt lat="45.693720" lon="3.055890">
						<ele>634</ele>
						<time>2025-03-13T15:30:08Z</time>
					</trkpt>
					<trkpt lat="45.693820" lon="3.055900">
						<ele>634</ele>
						<time>2025-03-13T15:30:13Z</time>
					</trkpt>
					<trkpt lat="45.693900" lon="3.055920">
						<ele>634</ele>
						<time>2025-03-13T15:30:17Z</time>
					</trkpt>
					<trkpt lat="45.694250" lon="3.055570">
						<ele>637</ele>
						<time>2025-03-13T15:30:39Z</time>
					</trkpt>
					<trkpt lat="45.694460" lon="3.055530">
						<ele>639</ele>
						<time>2025-03-13T15:30:49Z</time>
					</trkpt>
					<trkpt lat="45.694570" lon="3.055550">
						<ele>641</ele>
						<time>2025-03-13T15:30:55Z</time>
					</trkpt>
					<trkpt lat="45.695040" lon="3.055590">
						<ele>647</ele>
						<time>2025-03-13T15:31:18Z</time>
					</trkpt>
					<trkpt lat="45.695290" lon="3.055570">
						<ele>649</ele>
						<time>2025-03-13T15:31:31Z</time>
					</trkpt>
					<trkpt lat="45.695560" lon="3.055450">
						<ele>650</ele>
						<time>2025-03-13T15:31:45Z</time>
					</trkpt>
					<trkpt lat="45.697710" lon="3.054190">
						<ele>659</ele>
						<time>2025-03-13T15:33:41Z</time>
					</trkpt>
					<trkpt lat="45.698010" lon="3.054040">
						<ele>662</ele>
						<time>2025-03-13T15:33:57Z</time>
					</trkpt>
					<trkpt lat="45.698120" lon="3.053890">
						<ele>662</ele>
						<time>2025-03-13T15:34:05Z</time>
					</trkpt>
					<trkpt lat="45.698300" lon="3.053260">
						<ele>661</ele>
						<time>2025-03-13T15:34:29Z</time>
					</trkpt>
					<trkpt lat="45.698460" lon="3.052760">
						<ele>663</ele>
						<time>2025-03-13T15:34:48Z</time>
					</trkpt>
					<trkpt lat="45.698610" lon="3.052280">
						<ele>666</ele>
						<time>2025-03-13T15:35:06Z</time>
					</trkpt>
					<trkpt lat="45.698710" lon="3.051530">
						<ele>670</ele>
						<time>2025-03-13T15:35:33Z</time>
					</trkpt>
					<trkpt lat="45.698820" lon="3.051390">
						<ele>673</ele>
						<time>2025-03-13T15:35:40Z</time>
					</trkpt>
					<trkpt lat="45.699400" lon="3.051620">
						<ele>676</ele>
						<time>2025-03-13T15:36:10Z</time>
					</trkpt>
					<trkpt lat="45.699790" lon="3.051860">
						<ele>679</ele>
						<time>2025-03-13T15:36:32Z</time>
					</trkpt>
					<trkpt lat="45.699830" lon="3.051980">
						<ele>679</ele>
						<time>2025-03-13T15:36:36Z</time>
					</trkpt>
					<trkpt lat="45.699870" lon="3.052110">
						<ele>680</ele>
						<time>2025-03-13T15:36:41Z</time>
					</trkpt>
					<trkpt lat="45.699870" lon="3.052360">
						<ele>679</ele>
						<time>2025-03-13T15:36:50Z</time>
					</trkpt>
					<trkpt lat="45.699870" lon="3.052460">
						<ele>679</ele>
						<time>2025-03-13T15:36:54Z</time>
					</trkpt>
					<trkpt lat="45.699810" lon="3.052680">
						<ele>680</ele>
						<time>2025-03-13T15:37:02Z</time>
					</trkpt>
					<trkpt lat="45.699690" lon="3.052910">
						<ele>681</ele>
						<time>2025-03-13T15:37:12Z</time>
					</trkpt>
					<trkpt lat="45.699500" lon="3.053230">
						<ele>681</ele>
						<time>2025-03-13T15:37:26Z</time>
					</trkpt>
					<trkpt lat="45.699290" lon="3.053510">
						<ele>681</ele>
						<time>2025-03-13T15:37:41Z</time>
					</trkpt>
					<trkpt lat="45.699170" lon="3.053790">
						<ele>682</ele>
						<time>2025-03-13T15:37:52Z</time>
					</trkpt>
					<trkpt lat="45.699110" lon="3.054050">
						<ele>684</ele>
						<time>2025-03-13T15:38:02Z</time>
					</trkpt>
					<trkpt lat="45.699150" lon="3.054300">
						<ele>685</ele>
						<time>2025-03-13T15:38:11Z</time>
					</trkpt>
					<trkpt lat="45.699500" lon="3.054760">
						<ele>690</ele>
						<time>2025-03-13T15:38:35Z</time>
					</trkpt>
					<trkpt lat="45.699890" lon="3.054940">
						<ele>697</ele>
						<time>2025-03-13T15:38:55Z</time>
					</trkpt>
					<trkpt lat="45.700200" lon="3.055100">
						<ele>700</ele>
						<time>2025-03-13T15:39:12Z</time>
					</trkpt>
					<trkpt lat="45.700440" lon="3.055250">
						<ele>702</ele>
						<time>2025-03-13T15:39:25Z</time>
					</trkpt>
					<trkpt lat="45.700680" lon="3.055440">
						<ele>704</ele>
						<time>2025-03-13T15:39:38Z</time>
					</trkpt>
					<trkpt lat="45.700980" lon="3.055730">
						<ele>706</ele>
						<time>2025-03-13T15:39:57Z</time>
					</trkpt>
					<trkpt lat="45.701210" lon="3.055950">
						<ele>709</ele>
						<time>2025-03-13T15:40:10Z</time>
					</trkpt>
					<trkpt lat="45.701470" lon="3.056260">
						<ele>710</ele>
						<time>2025-03-13T15:40:27Z</time>
					</trkpt>
					<trkpt lat="45.701530" lon="3.056320">
						<ele>710</ele>
						<time>2025-03-13T15:40:31Z</time>
					</trkpt>
					<trkpt lat="45.701610" lon="3.056410">
						<ele>711</ele>
						<time>2025-03-13T15:40:36Z</time>
					</trkpt>
					<trkpt lat="45.701580" lon="3.056430">
						<ele>710</ele>
						<time>2025-03-13T15:40:38Z</time>
					</trkpt>
					</trkseg>
				</trk>
			</gpx>